Terminal Aerodrome Forecast
Issued by NWS Quad Cities IA IL

Home | Current Version | Previous Version | Text Only | Print | Product List | Glossary On
Versions: 1 2 3 4 5 6 7 8 9 10 11 12 13 14 15
594
FTUS43 KDVN 262320
TAFMLI
TAF
KMLI 262320Z 2700/2724 25008KT P6SM BKN150
     FM270400 33008KT P6SM SCT250
     FM271500 26013KT P6SM FEW050
     FM272000 27017G25KT P6SM BKN090=

USA.gov is the U.S. government's official web portal to all federal, state and local government web resources and services.